sensor_id;sensor_type;location;lat;lon;timestamp;P1;durP1;ratioP1;P2;durP2;ratioP2
46561;SDS011;32289;42.688;23.330;2023-03-08T00:00:05;6.78;;;2.85;;
46561;SDS011;32289;42.688;23.330;2023-03-08T00:03:54;5.00;;;2.72;;
46561;SDS011;32289;42.688;23.330;2023-03-08T00:07:35;3.85;;;2.20;;
46561;SDS011;32289;42.688;23.330;2023-03-08T00:11:16;5.63;;;2.65;;
46561;SDS011;32289;42.688;23.330;2023-03-08T00:14:57;4.55;;;3.10;;
46561;SDS011;32289;42.688;23.330;2023-03-08T00:18:38;12.65;;;3.90;;
46561;SDS011;32289;42.688;23.330;2023-03-08T00:22:19;6.50;;;2.50;;
46561;SDS011;32289;42.688;23.330;2023-03-08T00:25:59;4.22;;;2.38;;
46561;SDS011;32289;42.688;23.330;2023-03-08T00:29:40;6.90;;;2.28;;
46561;SDS011;32289;42.688;23.330;2023-03-08T00:33:21;4.45;;;2.25;;
46561;SDS011;32289;42.688;23.330;2023-03-08T00:37:02;7.75;;;2.10;;
46561;SDS011;32289;42.688;23.330;2023-03-08T00:40:42;5.07;;;2.10;;
46561;SDS011;32289;42.688;23.330;2023-03-08T00:44:23;4.85;;;2.25;;
46561;SDS011;32289;42.688;23.330;2023-03-08T00:48:04;6.00;;;1.98;;
46561;SDS011;32289;42.688;23.330;2023-03-08T00:51:45;7.00;;;3.08;;
46561;SDS011;32289;42.688;23.330;2023-03-08T00:55:25;7.50;;;2.70;;
46561;SDS011;32289;42.688;23.330;2023-03-08T00:59:06;4.53;;;2.42;;
46561;SDS011;32289;42.688;23.330;2023-03-08T01:02:47;9.00;;;2.78;;
46561;SDS011;32289;42.688;23.330;2023-03-08T01:06:28;5.50;;;2.38;;
46561;SDS011;32289;42.688;23.330;2023-03-08T01:10:09;9.45;;;2.30;;
46561;SDS011;32289;42.688;23.330;2023-03-08T01:13:50;5.60;;;2.13;;
46561;SDS011;32289;42.688;23.330;2023-03-08T01:17:31;4.78;;;2.22;;
46561;SDS011;32289;42.688;23.330;2023-03-08T01:21:12;5.72;;;2.38;;
46561;SDS011;32289;42.688;23.330;2023-03-08T01:24:53;4.78;;;2.30;;
46561;SDS011;32289;42.688;23.330;2023-03-08T01:28:34;4.70;;;2.70;;
46561;SDS011;32289;42.688;23.330;2023-03-08T01:32:14;4.70;;;2.50;;
46561;SDS011;32289;42.688;23.330;2023-03-08T01:35:55;4.07;;;1.98;;
46561;SDS011;32289;42.688;23.330;2023-03-08T01:39:36;6.57;;;2.50;;
46561;SDS011;32289;42.688;23.330;2023-03-08T01:47:11;6.88;;;3.05;;
46561;SDS011;32289;42.688;23.330;2023-03-08T01:50:59;3.92;;;2.45;;
46561;SDS011;32289;42.688;23.330;2023-03-08T01:54:48;3.72;;;1.83;;
46561;SDS011;32289;42.688;23.330;2023-03-08T01:58:38;5.82;;;2.63;;
46561;SDS011;32289;42.688;23.330;2023-03-08T02:02:27;4.97;;;2.20;;
46561;SDS011;32289;42.688;23.330;2023-03-08T02:06:12;4.40;;;2.42;;
46561;SDS011;32289;42.688;23.330;2023-03-08T02:09:55;4.50;;;2.15;;
46561;SDS011;32289;42.688;23.330;2023-03-08T02:13:35;5.07;;;2.50;;
46561;SDS011;32289;42.688;23.330;2023-03-08T02:17:16;7.90;;;2.90;;
46561;SDS011;32289;42.688;23.330;2023-03-08T02:20:57;5.15;;;2.40;;
46561;SDS011;32289;42.688;23.330;2023-03-08T02:24:38;5.20;;;2.88;;
46561;SDS011;32289;42.688;23.330;2023-03-08T02:28:19;4.45;;;2.40;;
46561;SDS011;32289;42.688;23.330;2023-03-08T02:32:01;5.90;;;2.22;;
46561;SDS011;32289;42.688;23.330;2023-03-08T02:35:42;7.68;;;3.33;;
46561;SDS011;32289;42.688;23.330;2023-03-08T02:39:23;7.35;;;3.40;;
46561;SDS011;32289;42.688;23.330;2023-03-08T02:43:04;7.85;;;3.45;;
46561;SDS011;32289;42.688;23.330;2023-03-08T02:46:45;4.95;;;2.35;;
46561;SDS011;32289;42.688;23.330;2023-03-08T02:50:26;4.47;;;2.75;;
46561;SDS011;32289;42.688;23.330;2023-03-08T02:54:07;14.32;;;3.95;;
46561;SDS011;32289;42.688;23.330;2023-03-08T02:57:48;5.65;;;2.65;;
46561;SDS011;32289;42.688;23.330;2023-03-08T03:01:29;5.95;;;2.83;;
46561;SDS011;32289;42.688;23.330;2023-03-08T03:05:09;6.85;;;2.78;;
46561;SDS011;32289;42.688;23.330;2023-03-08T03:08:50;10.02;;;3.40;;
46561;SDS011;32289;42.688;23.330;2023-03-08T03:12:31;7.95;;;2.80;;
46561;SDS011;32289;42.688;23.330;2023-03-08T03:16:13;8.52;;;3.63;;
46561;SDS011;32289;42.688;23.330;2023-03-08T03:19:55;10.82;;;3.90;;
46561;SDS011;32289;42.688;23.330;2023-03-08T03:23:35;8.32;;;3.20;;
46561;SDS011;32289;42.688;23.330;2023-03-08T03:27:17;9.88;;;3.35;;
46561;SDS011;32289;42.688;23.330;2023-03-08T03:30:58;6.00;;;3.13;;
46561;SDS011;32289;42.688;23.330;2023-03-08T03:34:39;9.35;;;3.53;;
46561;SDS011;32289;42.688;23.330;2023-03-08T03:38:19;8.55;;;3.78;;
46561;SDS011;32289;42.688;23.330;2023-03-08T03:42:00;8.75;;;3.38;;
46561;SDS011;32289;42.688;23.330;2023-03-08T03:45:41;10.77;;;4.03;;
46561;SDS011;32289;42.688;23.330;2023-03-08T03:49:21;9.27;;;4.07;;
46561;SDS011;32289;42.688;23.330;2023-03-08T03:53:02;13.75;;;3.30;;
46561;SDS011;32289;42.688;23.330;2023-03-08T03:56:43;4.03;;;2.38;;
46561;SDS011;32289;42.688;23.330;2023-03-08T04:00:24;5.13;;;2.50;;
46561;SDS011;32289;42.688;23.330;2023-03-08T04:04:05;8.02;;;3.10;;
46561;SDS011;32289;42.688;23.330;2023-03-08T04:07:45;9.52;;;3.42;;
46561;SDS011;32289;42.688;23.330;2023-03-08T04:11:27;6.35;;;2.78;;
46561;SDS011;32289;42.688;23.330;2023-03-08T04:15:10;6.68;;;3.22;;
46561;SDS011;32289;42.688;23.330;2023-03-08T04:18:52;6.25;;;2.42;;
46561;SDS011;32289;42.688;23.330;2023-03-08T04:22:34;5.65;;;3.08;;
46561;SDS011;32289;42.688;23.330;2023-03-08T04:26:15;12.82;;;3.85;;
46561;SDS011;32289;42.688;23.330;2023-03-08T04:29:56;6.93;;;3.05;;
46561;SDS011;32289;42.688;23.330;2023-03-08T04:33:37;6.97;;;2.22;;
46561;SDS011;32289;42.688;23.330;2023-03-08T04:37:18;4.95;;;2.90;;
46561;SDS011;32289;42.688;23.330;2023-03-08T04:40:59;8.63;;;3.15;;
46561;SDS011;32289;42.688;23.330;2023-03-08T04:44:50;6.82;;;3.35;;
46561;SDS011;32289;42.688;23.330;2023-03-08T04:48:31;5.10;;;2.70;;
46561;SDS011;32289;42.688;23.330;2023-03-08T04:52:12;9.48;;;3.13;;
46561;SDS011;32289;42.688;23.330;2023-03-08T04:55:53;6.05;;;2.38;;
46561;SDS011;32289;42.688;23.330;2023-03-08T04:59:34;4.85;;;2.92;;
46561;SDS011;32289;42.688;23.330;2023-03-08T05:03:15;5.10;;;2.70;;
46561;SDS011;32289;42.688;23.330;2023-03-08T05:06:56;5.03;;;3.17;;
46561;SDS011;32289;42.688;23.330;2023-03-08T05:10:37;4.82;;;2.72;;
46561;SDS011;32289;42.688;23.330;2023-03-08T05:14:18;5.10;;;3.30;;
46561;SDS011;32289;42.688;23.330;2023-03-08T05:18:00;12.50;;;3.78;;
46561;SDS011;32289;42.688;23.330;2023-03-08T05:21:41;7.07;;;3.72;;
46561;SDS011;32289;42.688;23.330;2023-03-08T05:25:22;10.93;;;3.67;;
46561;SDS011;32289;42.688;23.330;2023-03-08T05:29:02;8.55;;;3.67;;
46561;SDS011;32289;42.688;23.330;2023-03-08T05:32:45;15.98;;;5.68;;
46561;SDS011;32289;42.688;23.330;2023-03-08T05:36:26;10.65;;;5.88;;
46561;SDS011;32289;42.688;23.330;2023-03-08T05:40:07;23.77;;;6.18;;
46561;SDS011;32289;42.688;23.330;2023-03-08T05:43:48;15.02;;;5.68;;
46561;SDS011;32289;42.688;23.330;2023-03-08T05:47:29;15.98;;;5.13;;
46561;SDS011;32289;42.688;23.330;2023-03-08T05:51:11;11.07;;;4.93;;
46561;SDS011;32289;42.688;23.330;2023-03-08T05:54:56;25.25;;;6.30;;
46561;SDS011;32289;42.688;23.330;2023-03-08T05:58:37;18.15;;;6.38;;
46561;SDS011;32289;42.688;23.330;2023-03-08T06:02:18;15.18;;;5.80;;
46561;SDS011;32289;42.688;23.330;2023-03-08T06:05:59;20.58;;;7.18;;
46561;SDS011;32289;42.688;23.330;2023-03-08T06:09:40;12.15;;;5.47;;
46561;SDS011;32289;42.688;23.330;2023-03-08T06:13:21;13.70;;;4.90;;
46561;SDS011;32289;42.688;23.330;2023-03-08T06:17:01;11.90;;;5.07;;
46561;SDS011;32289;42.688;23.330;2023-03-08T06:20:42;17.58;;;6.40;;
46561;SDS011;32289;42.688;23.330;2023-03-08T06:24:23;15.45;;;5.88;;
46561;SDS011;32289;42.688;23.330;2023-03-08T06:28:04;16.40;;;6.53;;
46561;SDS011;32289;42.688;23.330;2023-03-08T06:31:44;18.65;;;5.70;;
46561;SDS011;32289;42.688;23.330;2023-03-08T06:35:25;12.35;;;5.00;;
46561;SDS011;32289;42.688;23.330;2023-03-08T06:39:06;11.65;;;4.15;;
46561;SDS011;32289;42.688;23.330;2023-03-08T06:42:47;10.27;;;3.83;;
46561;SDS011;32289;42.688;23.330;2023-03-08T06:46:27;11.45;;;3.70;;
46561;SDS011;32289;42.688;23.330;2023-03-08T06:50:08;5.82;;;3.20;;
46561;SDS011;32289;42.688;23.330;2023-03-08T06:53:50;10.07;;;3.88;;
46561;SDS011;32289;42.688;23.330;2023-03-08T06:57:31;8.15;;;3.70;;
46561;SDS011;32289;42.688;23.330;2023-03-08T07:01:12;6.85;;;3.65;;
46561;SDS011;32289;42.688;23.330;2023-03-08T07:04:53;9.73;;;4.75;;
46561;SDS011;32289;42.688;23.330;2023-03-08T07:08:37;7.07;;;2.95;;
46561;SDS011;32289;42.688;23.330;2023-03-08T07:12:19;7.72;;;3.60;;
46561;SDS011;32289;42.688;23.330;2023-03-08T07:16:04;10.73;;;4.80;;
46561;SDS011;32289;42.688;23.330;2023-03-08T07:19:46;8.55;;;3.53;;
46561;SDS011;32289;42.688;23.330;2023-03-08T07:23:27;7.40;;;3.28;;
46561;SDS011;32289;42.688;23.330;2023-03-08T07:27:08;6.38;;;2.75;;
46561;SDS011;32289;42.688;23.330;2023-03-08T07:30:49;7.28;;;3.53;;
46561;SDS011;32289;42.688;23.330;2023-03-08T07:34:31;7.18;;;2.85;;
46561;SDS011;32289;42.688;23.330;2023-03-08T07:38:11;6.63;;;3.05;;
46561;SDS011;32289;42.688;23.330;2023-03-08T07:41:53;16.35;;;3.78;;
46561;SDS011;32289;42.688;23.330;2023-03-08T07:45:33;6.95;;;2.97;;
46561;SDS011;32289;42.688;23.330;2023-03-08T07:49:16;5.00;;;2.95;;
46561;SDS011;32289;42.688;23.330;2023-03-08T07:52:57;6.35;;;2.97;;
46561;SDS011;32289;42.688;23.330;2023-03-08T07:56:39;6.53;;;2.72;;
46561;SDS011;32289;42.688;23.330;2023-03-08T08:00:19;8.23;;;3.00;;
46561;SDS011;32289;42.688;23.330;2023-03-08T08:04:00;7.70;;;2.80;;
46561;SDS011;32289;42.688;23.330;2023-03-08T08:07:41;5.15;;;2.60;;
46561;SDS011;32289;42.688;23.330;2023-03-08T08:11:25;8.07;;;4.10;;
46561;SDS011;32289;42.688;23.330;2023-03-08T08:15:06;7.72;;;3.47;;
46561;SDS011;32289;42.688;23.330;2023-03-08T08:18:49;8.35;;;3.30;;
46561;SDS011;32289;42.688;23.330;2023-03-08T08:22:33;12.77;;;2.92;;
46561;SDS011;32289;42.688;23.330;2023-03-08T08:26:18;9.00;;;3.40;;
46561;SDS011;32289;42.688;23.330;2023-03-08T08:30:00;9.45;;;3.97;;
46561;SDS011;32289;42.688;23.330;2023-03-08T08:33:43;9.43;;;3.53;;
46561;SDS011;32289;42.688;23.330;2023-03-08T08:37:23;10.45;;;3.75;;
46561;SDS011;32289;42.688;23.330;2023-03-08T08:41:05;8.80;;;3.67;;
46561;SDS011;32289;42.688;23.330;2023-03-08T08:44:47;8.52;;;3.45;;
46561;SDS011;32289;42.688;23.330;2023-03-08T08:48:27;6.65;;;3.47;;
46561;SDS011;32289;42.688;23.330;2023-03-08T08:52:08;14.65;;;4.20;;
46561;SDS011;32289;42.688;23.330;2023-03-08T08:55:49;9.60;;;3.65;;
46561;SDS011;32289;42.688;23.330;2023-03-08T08:59:30;6.38;;;3.28;;
46561;SDS011;32289;42.688;23.330;2023-03-08T09:03:11;10.55;;;4.43;;
46561;SDS011;32289;42.688;23.330;2023-03-08T09:06:52;7.07;;;3.22;;
46561;SDS011;32289;42.688;23.330;2023-03-08T09:10:34;8.15;;;3.80;;
46561;SDS011;32289;42.688;23.330;2023-03-08T09:14:17;10.00;;;4.30;;
46561;SDS011;32289;42.688;23.330;2023-03-08T09:17:58;8.93;;;4.00;;
46561;SDS011;32289;42.688;23.330;2023-03-08T09:21:38;7.25;;;3.85;;
46561;SDS011;32289;42.688;23.330;2023-03-08T09:25:19;11.90;;;4.60;;
46561;SDS011;32289;42.688;23.330;2023-03-08T09:29:03;8.77;;;3.83;;
46561;SDS011;32289;42.688;23.330;2023-03-08T09:32:44;10.30;;;3.80;;
46561;SDS011;32289;42.688;23.330;2023-03-08T09:36:25;7.22;;;3.30;;
46561;SDS011;32289;42.688;23.330;2023-03-08T09:40:11;8.13;;;3.80;;
46561;SDS011;32289;42.688;23.330;2023-03-08T09:44:17;8.55;;;4.00;;
46561;SDS011;32289;42.688;23.330;2023-03-08T09:48:08;12.48;;;4.30;;
46561;SDS011;32289;42.688;23.330;2023-03-08T09:55:56;8.50;;;4.10;;
46561;SDS011;32289;42.688;23.330;2023-03-08T09:59:46;11.25;;;4.47;;
46561;SDS011;32289;42.688;23.330;2023-03-08T10:03:43;8.77;;;4.25;;
46561;SDS011;32289;42.688;23.330;2023-03-08T10:11:30;9.63;;;5.03;;
46561;SDS011;32289;42.688;23.330;2023-03-08T10:15:18;9.43;;;4.97;;
46561;SDS011;32289;42.688;23.330;2023-03-08T10:23:11;9.00;;;4.05;;
46561;SDS011;32289;42.688;23.330;2023-03-08T10:31:01;9.27;;;3.88;;
46561;SDS011;32289;42.688;23.330;2023-03-08T10:35:02;8.65;;;3.90;;
46561;SDS011;32289;42.688;23.330;2023-03-08T10:38:54;7.57;;;3.70;;
46561;SDS011;32289;42.688;23.330;2023-03-08T10:42:36;8.95;;;4.13;;
46561;SDS011;32289;42.688;23.330;2023-03-08T10:46:21;7.05;;;3.50;;
46561;SDS011;32289;42.688;23.330;2023-03-08T10:57:38;6.32;;;3.80;;
46561;SDS011;32289;42.688;23.330;2023-03-08T11:01:23;13.05;;;4.45;;
46561;SDS011;32289;42.688;23.330;2023-03-08T11:05:15;6.22;;;3.65;;
46561;SDS011;32289;42.688;23.330;2023-03-08T11:09:00;6.60;;;3.40;;
46561;SDS011;32289;42.688;23.330;2023-03-08T11:12:43;8.88;;;3.60;;
46561;SDS011;32289;42.688;23.330;2023-03-08T11:20:27;5.05;;;2.60;;
46561;SDS011;32289;42.688;23.330;2023-03-08T11:24:17;6.35;;;3.08;;
46561;SDS011;32289;42.688;23.330;2023-03-08T11:28:15;11.75;;;3.80;;
46561;SDS011;32289;42.688;23.330;2023-03-08T11:36:29;5.88;;;2.70;;
46561;SDS011;32289;42.688;23.330;2023-03-08T11:40:25;6.32;;;2.10;;
46561;SDS011;32289;42.688;23.330;2023-03-08T12:00:58;3.17;;;1.33;;
46561;SDS011;32289;42.688;23.330;2023-03-08T12:04:40;5.33;;;1.60;;
46561;SDS011;32289;42.688;23.330;2023-03-08T12:12:30;4.60;;;1.63;;
46561;SDS011;32289;42.688;23.330;2023-03-08T12:16:43;4.50;;;1.23;;
46561;SDS011;32289;42.688;23.330;2023-03-08T12:20:29;3.70;;;1.58;;
46561;SDS011;32289;42.688;23.330;2023-03-08T12:28:29;3.33;;;1.27;;
46561;SDS011;32289;42.688;23.330;2023-03-08T12:32:15;5.07;;;1.40;;
46561;SDS011;32289;42.688;23.330;2023-03-08T12:35:58;2.78;;;1.20;;
46561;SDS011;32289;42.688;23.330;2023-03-08T12:39:53;3.00;;;1.67;;
46561;SDS011;32289;42.688;23.330;2023-03-08T12:43:37;2.85;;;1.23;;
46561;SDS011;32289;42.688;23.330;2023-03-08T12:47:19;5.20;;;2.30;;
46561;SDS011;32289;42.688;23.330;2023-03-08T12:51:03;4.60;;;1.73;;
46561;SDS011;32289;42.688;23.330;2023-03-08T13:02:33;6.97;;;1.30;;
46561;SDS011;32289;42.688;23.330;2023-03-08T13:10:20;7.15;;;1.67;;
46561;SDS011;32289;42.688;23.330;2023-03-08T13:14:03;3.70;;;0.98;;
46561;SDS011;32289;42.688;23.330;2023-03-08T13:17:49;2.13;;;1.02;;
46561;SDS011;32289;42.688;23.330;2023-03-08T13:21:39;2.78;;;1.25;;
46561;SDS011;32289;42.688;23.330;2023-03-08T13:29:51;2.80;;;1.17;;
46561;SDS011;32289;42.688;23.330;2023-03-08T13:33:37;1.88;;;1.00;;
46561;SDS011;32289;42.688;23.330;2023-03-08T13:37:22;2.63;;;1.27;;
46561;SDS011;32289;42.688;23.330;2023-03-08T13:41:04;1.88;;;0.82;;
46561;SDS011;32289;42.688;23.330;2023-03-08T13:44:44;3.00;;;1.55;;
46561;SDS011;32289;42.688;23.330;2023-03-08T13:48:30;3.17;;;1.27;;
46561;SDS011;32289;42.688;23.330;2023-03-08T13:52:15;3.92;;;2.03;;
46561;SDS011;32289;42.688;23.330;2023-03-08T13:56:01;4.47;;;0.90;;
46561;SDS011;32289;42.688;23.330;2023-03-08T13:59:51;2.85;;;1.30;;
46561;SDS011;32289;42.688;23.330;2023-03-08T14:03:34;5.03;;;1.70;;
46561;SDS011;32289;42.688;23.330;2023-03-08T14:07:22;1.88;;;1.00;;
46561;SDS011;32289;42.688;23.330;2023-03-08T14:11:05;3.45;;;1.35;;
46561;SDS011;32289;42.688;23.330;2023-03-08T14:14:48;1.73;;;1.02;;
46561;SDS011;32289;42.688;23.330;2023-03-08T14:18:50;2.50;;;1.17;;
46561;SDS011;32289;42.688;23.330;2023-03-08T14:22:31;5.28;;;1.58;;
46561;SDS011;32289;42.688;23.330;2023-03-08T14:30:11;1.77;;;1.00;;
46561;SDS011;32289;42.688;23.330;2023-03-08T14:33:58;2.55;;;1.60;;
46561;SDS011;32289;42.688;23.330;2023-03-08T14:37:42;10.25;;;2.85;;
46561;SDS011;32289;42.688;23.330;2023-03-08T14:41:28;2.42;;;1.13;;
46561;SDS011;32289;42.688;23.330;2023-03-08T14:49:03;2.72;;;1.40;;
46561;SDS011;32289;42.688;23.330;2023-03-08T14:52:47;2.60;;;1.05;;
46561;SDS011;32289;42.688;23.330;2023-03-08T14:56:30;2.40;;;1.00;;
46561;SDS011;32289;42.688;23.330;2023-03-08T15:00:14;4.80;;;1.40;;
46561;SDS011;32289;42.688;23.330;2023-03-08T15:03:55;3.65;;;1.95;;
46561;SDS011;32289;42.688;23.330;2023-03-08T15:07:36;5.35;;;2.03;;
46561;SDS011;32289;42.688;23.330;2023-03-08T15:11:17;4.20;;;1.50;;
46561;SDS011;32289;42.688;23.330;2023-03-08T15:14:59;3.17;;;1.63;;
46561;SDS011;32289;42.688;23.330;2023-03-08T15:18:40;3.67;;;1.40;;
46561;SDS011;32289;42.688;23.330;2023-03-08T15:22:21;2.70;;;1.30;;
46561;SDS011;32289;42.688;23.330;2023-03-08T15:26:05;5.18;;;2.05;;
46561;SDS011;32289;42.688;23.330;2023-03-08T15:29:46;2.95;;;1.10;;
46561;SDS011;32289;42.688;23.330;2023-03-08T15:33:27;3.10;;;1.67;;
46561;SDS011;32289;42.688;23.330;2023-03-08T15:37:10;4.00;;;2.35;;
46561;SDS011;32289;42.688;23.330;2023-03-08T15:40:53;3.90;;;1.70;;
46561;SDS011;32289;42.688;23.330;2023-03-08T15:44:36;2.92;;;1.13;;
46561;SDS011;32289;42.688;23.330;2023-03-08T15:48:17;2.70;;;1.08;;
46561;SDS011;32289;42.688;23.330;2023-03-08T15:51:58;2.72;;;1.00;;
46561;SDS011;32289;42.688;23.330;2023-03-08T15:55:39;6.63;;;1.25;;
46561;SDS011;32289;42.688;23.330;2023-03-08T15:59:20;3.50;;;1.40;;
46561;SDS011;32289;42.688;23.330;2023-03-08T16:03:01;3.17;;;1.75;;
46561;SDS011;32289;42.688;23.330;2023-03-08T16:06:42;3.72;;;1.30;;
46561;SDS011;32289;42.688;23.330;2023-03-08T16:10:22;5.18;;;1.00;;
46561;SDS011;32289;42.688;23.330;2023-03-08T16:14:03;4.57;;;1.77;;
46561;SDS011;32289;42.688;23.330;2023-03-08T16:17:44;5.32;;;2.33;;
46561;SDS011;32289;42.688;23.330;2023-03-08T16:21:26;5.25;;;2.35;;
46561;SDS011;32289;42.688;23.330;2023-03-08T16:25:08;6.65;;;1.73;;
46561;SDS011;32289;42.688;23.330;2023-03-08T16:28:49;6.82;;;1.63;;
46561;SDS011;32289;42.688;23.330;2023-03-08T16:32:29;6.30;;;2.15;;
46561;SDS011;32289;42.688;23.330;2023-03-08T16:36:10;5.28;;;2.13;;
46561;SDS011;32289;42.688;23.330;2023-03-08T16:39:52;4.40;;;1.58;;
46561;SDS011;32289;42.688;23.330;2023-03-08T16:43:34;3.83;;;1.95;;
46561;SDS011;32289;42.688;23.330;2023-03-08T16:47:15;3.78;;;1.73;;
46561;SDS011;32289;42.688;23.330;2023-03-08T16:50:57;4.55;;;1.70;;
46561;SDS011;32289;42.688;23.330;2023-03-08T16:54:38;3.60;;;1.75;;
46561;SDS011;32289;42.688;23.330;2023-03-08T16:58:19;3.25;;;1.48;;
46561;SDS011;32289;42.688;23.330;2023-03-08T17:02:00;7.22;;;2.05;;
46561;SDS011;32289;42.688;23.330;2023-03-08T17:05:42;9.48;;;2.90;;
46561;SDS011;32289;42.688;23.330;2023-03-08T17:09:24;16.48;;;6.18;;
46561;SDS011;32289;42.688;23.330;2023-03-08T17:13:05;13.32;;;3.83;;
46561;SDS011;32289;42.688;23.330;2023-03-08T17:16:46;12.23;;;4.22;;
46561;SDS011;32289;42.688;23.330;2023-03-08T17:20:27;5.95;;;3.33;;
46561;SDS011;32289;42.688;23.330;2023-03-08T17:24:10;10.60;;;3.42;;
46561;SDS011;32289;42.688;23.330;2023-03-08T17:27:52;8.50;;;2.88;;
46561;SDS011;32289;42.688;23.330;2023-03-08T17:31:33;14.95;;;3.40;;
46561;SDS011;32289;42.688;23.330;2023-03-08T17:35:13;11.00;;;4.13;;
46561;SDS011;32289;42.688;23.330;2023-03-08T17:38:55;13.85;;;3.88;;
46561;SDS011;32289;42.688;23.330;2023-03-08T17:42:36;7.63;;;3.08;;
46561;SDS011;32289;42.688;23.330;2023-03-08T17:46:18;10.60;;;3.38;;
46561;SDS011;32289;42.688;23.330;2023-03-08T17:50:02;7.03;;;2.33;;
46561;SDS011;32289;42.688;23.330;2023-03-08T17:53:44;10.98;;;3.15;;
46561;SDS011;32289;42.688;23.330;2023-03-08T17:57:25;5.68;;;2.65;;
46561;SDS011;32289;42.688;23.330;2023-03-08T18:05:13;10.75;;;3.22;;
46561;SDS011;32289;42.688;23.330;2023-03-08T18:08:55;6.47;;;2.78;;
46561;SDS011;32289;42.688;23.330;2023-03-08T18:12:36;12.43;;;3.55;;
46561;SDS011;32289;42.688;23.330;2023-03-08T18:16:18;10.93;;;4.57;;
46561;SDS011;32289;42.688;23.330;2023-03-08T18:20:00;12.38;;;5.40;;
46561;SDS011;32289;42.688;23.330;2023-03-08T18:23:40;10.85;;;4.18;;
46561;SDS011;32289;42.688;23.330;2023-03-08T18:27:22;9.63;;;4.38;;
46561;SDS011;32289;42.688;23.330;2023-03-08T18:31:13;10.77;;;4.93;;
46561;SDS011;32289;42.688;23.330;2023-03-08T18:34:55;15.30;;;5.13;;
46561;SDS011;32289;42.688;23.330;2023-03-08T18:38:36;13.15;;;5.95;;
46561;SDS011;32289;42.688;23.330;2023-03-08T18:42:17;10.40;;;4.05;;
46561;SDS011;32289;42.688;23.330;2023-03-08T18:45:57;11.95;;;4.50;;
46561;SDS011;32289;42.688;23.330;2023-03-08T18:49:38;10.13;;;3.75;;
46561;SDS011;32289;42.688;23.330;2023-03-08T18:53:20;31.70;;;7.55;;
46561;SDS011;32289;42.688;23.330;2023-03-08T18:57:01;12.73;;;4.35;;
46561;SDS011;32289;42.688;23.330;2023-03-08T19:00:42;10.30;;;3.83;;
46561;SDS011;32289;42.688;23.330;2023-03-08T19:04:22;9.07;;;3.65;;
46561;SDS011;32289;42.688;23.330;2023-03-08T19:08:03;7.35;;;2.25;;
46561;SDS011;32289;42.688;23.330;2023-03-08T19:11:44;7.50;;;2.53;;
46561;SDS011;32289;42.688;23.330;2023-03-08T19:15:27;3.40;;;1.60;;
46561;SDS011;32289;42.688;23.330;2023-03-08T19:19:09;9.15;;;2.95;;
46561;SDS011;32289;42.688;23.330;2023-03-08T19:22:52;10.30;;;3.42;;
46561;SDS011;32289;42.688;23.330;2023-03-08T19:26:33;5.63;;;2.70;;
46561;SDS011;32289;42.688;23.330;2023-03-08T19:30:16;5.15;;;2.70;;
46561;SDS011;32289;42.688;23.330;2023-03-08T19:33:56;8.70;;;2.40;;
46561;SDS011;32289;42.688;23.330;2023-03-08T19:37:37;5.30;;;2.08;;
46561;SDS011;32289;42.688;23.330;2023-03-08T19:41:18;4.05;;;1.73;;
46561;SDS011;32289;42.688;23.330;2023-03-08T19:44:59;4.35;;;1.80;;
46561;SDS011;32289;42.688;23.330;2023-03-08T19:48:42;8.95;;;3.42;;
46561;SDS011;32289;42.688;23.330;2023-03-08T19:52:24;11.32;;;5.03;;
46561;SDS011;32289;42.688;23.330;2023-03-08T19:56:05;10.32;;;3.67;;
46561;SDS011;32289;42.688;23.330;2023-03-08T19:59:46;6.47;;;3.40;;
46561;SDS011;32289;42.688;23.330;2023-03-08T20:03:27;9.35;;;3.50;;
46561;SDS011;32289;42.688;23.330;2023-03-08T20:07:08;7.25;;;3.67;;
46561;SDS011;32289;42.688;23.330;2023-03-08T20:10:48;7.53;;;3.22;;
46561;SDS011;32289;42.688;23.330;2023-03-08T20:14:29;9.07;;;4.13;;
46561;SDS011;32289;42.688;23.330;2023-03-08T20:18:10;6.93;;;3.40;;
46561;SDS011;32289;42.688;23.330;2023-03-08T20:21:51;7.75;;;2.92;;
46561;SDS011;32289;42.688;23.330;2023-03-08T20:25:31;6.03;;;2.78;;
46561;SDS011;32289;42.688;23.330;2023-03-08T20:29:13;8.07;;;2.63;;
46561;SDS011;32289;42.688;23.330;2023-03-08T20:32:54;6.97;;;2.22;;
46561;SDS011;32289;42.688;23.330;2023-03-08T20:36:35;4.03;;;1.75;;
46561;SDS011;32289;42.688;23.330;2023-03-08T20:40:16;5.68;;;2.63;;
46561;SDS011;32289;42.688;23.330;2023-03-08T20:43:59;3.13;;;1.70;;
46561;SDS011;32289;42.688;23.330;2023-03-08T20:47:40;3.03;;;1.50;;
46561;SDS011;32289;42.688;23.330;2023-03-08T20:51:21;5.32;;;2.33;;
46561;SDS011;32289;42.688;23.330;2023-03-08T20:55:02;9.65;;;1.80;;
46561;SDS011;32289;42.688;23.330;2023-03-08T20:58:44;4.80;;;2.00;;
46561;SDS011;32289;42.688;23.330;2023-03-08T21:02:26;3.97;;;2.03;;
46561;SDS011;32289;42.688;23.330;2023-03-08T21:06:14;5.47;;;1.92;;
46561;SDS011;32289;42.688;23.330;2023-03-08T21:09:59;4.32;;;1.58;;
46561;SDS011;32289;42.688;23.330;2023-03-08T21:13:40;6.90;;;1.83;;
46561;SDS011;32289;42.688;23.330;2023-03-08T21:17:21;4.00;;;1.40;;
46561;SDS011;32289;42.688;23.330;2023-03-08T21:21:05;7.97;;;1.88;;
46561;SDS011;32289;42.688;23.330;2023-03-08T21:24:45;5.63;;;1.75;;
46561;SDS011;32289;42.688;23.330;2023-03-08T21:28:29;2.58;;;1.42;;
46561;SDS011;32289;42.688;23.330;2023-03-08T21:32:10;5.25;;;1.45;;
46561;SDS011;32289;42.688;23.330;2023-03-08T21:35:51;3.22;;;1.98;;
46561;SDS011;32289;42.688;23.330;2023-03-08T21:39:32;4.38;;;1.63;;
46561;SDS011;32289;42.688;23.330;2023-03-08T21:43:12;3.28;;;1.33;;
46561;SDS011;32289;42.688;23.330;2023-03-08T21:46:53;3.75;;;1.40;;
46561;SDS011;32289;42.688;23.330;2023-03-08T21:50:37;5.10;;;1.42;;
46561;SDS011;32289;42.688;23.330;2023-03-08T21:54:20;2.85;;;1.80;;
46561;SDS011;32289;42.688;23.330;2023-03-08T21:58:02;5.43;;;1.63;;
46561;SDS011;32289;42.688;23.330;2023-03-08T22:01:44;8.13;;;1.70;;
46561;SDS011;32289;42.688;23.330;2023-03-08T22:05:27;4.72;;;1.85;;
46561;SDS011;32289;42.688;23.330;2023-03-08T22:09:09;2.13;;;1.30;;
46561;SDS011;32289;42.688;23.330;2023-03-08T22:12:50;3.20;;;1.55;;
46561;SDS011;32289;42.688;23.330;2023-03-08T22:16:30;2.50;;;1.05;;
46561;SDS011;32289;42.688;23.330;2023-03-08T22:20:11;2.58;;;1.55;;
46561;SDS011;32289;42.688;23.330;2023-03-08T22:23:53;2.53;;;1.25;;
46561;SDS011;32289;42.688;23.330;2023-03-08T22:27:36;4.25;;;1.88;;
46561;SDS011;32289;42.688;23.330;2023-03-08T22:31:18;2.22;;;1.23;;
46561;SDS011;32289;42.688;23.330;2023-03-08T22:35:00;5.28;;;1.63;;
46561;SDS011;32289;42.688;23.330;2023-03-08T22:38:42;4.75;;;1.38;;
46561;SDS011;32289;42.688;23.330;2023-03-08T22:42:22;4.95;;;1.95;;
46561;SDS011;32289;42.688;23.330;2023-03-08T22:46:04;7.38;;;1.63;;
46561;SDS011;32289;42.688;23.330;2023-03-08T22:49:49;3.58;;;1.52;;
46561;SDS011;32289;42.688;23.330;2023-03-08T22:53:30;4.43;;;1.40;;
46561;SDS011;32289;42.688;23.330;2023-03-08T22:57:11;3.00;;;1.00;;
46561;SDS011;32289;42.688;23.330;2023-03-08T23:00:52;4.38;;;1.45;;
46561;SDS011;32289;42.688;23.330;2023-03-08T23:04:33;4.07;;;1.30;;
46561;SDS011;32289;42.688;23.330;2023-03-08T23:08:14;8.60;;;1.60;;
46561;SDS011;32289;42.688;23.330;2023-03-08T23:11:55;3.20;;;1.30;;
46561;SDS011;32289;42.688;23.330;2023-03-08T23:15:38;2.97;;;1.20;;
46561;SDS011;32289;42.688;23.330;2023-03-08T23:19:19;2.20;;;1.30;;
46561;SDS011;32289;42.688;23.330;2023-03-08T23:23:01;3.90;;;1.38;;